Ana Sayfa
METAR-TAF:

METAR-TAF

Havaalanları :

Caracas, Venezuela

Enlem: 10-36N, Boylam: 066-59W, yükseklik: 43 m

Güncel hava durumu gözlemi

Rapor saat 05:00 UTC de 37 dakika önce yapıldı.
Sakin rüzgar
Sıcaklık 25°C
Nem 83%
Basınç 1011 hPa
Görüş mesafesi 10 km veya daha fazla
1600 ft yükseklikte az bulutlu

METAR: SVMI 230500Z 00000KT 9999 FEW016 25/22 Q1011

Saat: 01:37 (05:37 UTC)

Tahmin

Rapor saat 22:00 UTC de 7 saat ve 37 dakika önce yapıldı.
Ayın 23'si saat 00 UTC'den ayın 24'si saat 00 UTC'ye kadar geçerli Tahmin
Rüzgar doğudan 6 kt
Görüş mesafesi 10 km veya daha fazla
1600 ft yükseklikte az bulutlu
7000 ft yükseklikte parçalı bulutlu
Dönüşüyor
ayın 23'si saat 00 UTC'den ayın 23'si saat 05 UTC'ye kadar
Rüzgar batıdan 6 kt
Görüş mesafesi 10 km veya daha fazla
1600 ft yükseklikte az bulutlu

TAF: SVMI 222200Z 2300/2400 09006KT 9999 FEW016 SCT070 TX31/2218Z TN24/2310Z BECMG 2300/2305 27006KT 9999 FEW016

4.000'den fazla havaalanı için hava durumu gözlemleri ve tahminleri (METAR ve TAF raporları).

Kullanılabilir istasyonlar harita üzerinde sarı ve kırmızı noktalarla gösterilir.

İstasyonun adını görmek için fareyi noktanın üzerinde gezdirin.

Sonrasında hava gözlem ve tahminlerini görmek için tıklayın.

Haritayı değiştirmek için: yaklaştırmak için siyah artı işaretli yeşil düğmeye ve uzaklaştırmak için de eksi işaretli düğmeye hızla tıklayın; bitişik haritalar için yeşil okları kullanın.


METAR-TAF: